CheckWX is a tool to help pilots better visualize weather data.  It is not intended as a substitute for an official pre-flight weather briefing.

05:25:27 UTC

EFVA TAF
Vaasa Airport
Vaasa, Finland
TAF EFVA 180236Z 1803/1903 VRB02KT CAVOK BECMG 1807/1809 22010KT TEMPO 1809/1817 22017G27KT PROB30 1823/1903 1200 BR

Jun-18@
03:00 UTC

Jun-18 @ 03:00 UTC

Jun-18@
07:00 UTC

Jun-18 @ 07:00 UTC

TAF EFVA 180236Z 1803/1903 VRB02KT CAVOK
Wind
  • Variable at 2 KTS
Conditions
No significant weather
Cloud Levels
  • No significant clouds

Jun-18@
07:00 UTC

Jun-18 @ 07:00 UTC

Jun-19@
03:00 UTC

Jun-19 @ 03:00 UTC

BECMG 1807/1809 22010KT

Becoming

Becoming Conditions expected by Tue, Jun 18, 2019 @ 09:00 UTC

Wind
  • 220° at 10 KTS
Conditions
No significant weather
Cloud Levels
  • No significant clouds

Jun-18@
09:00 UTC

Jun-18 @ 09:00 UTC

Jun-18@
17:00 UTC

Jun-18 @ 17:00 UTC

TEMPO 1809/1817 22017G27KT

Temporary

Temporary Changes expected for less than half the time period

Wind
  • 220° at 17 KTS
  • {Gusting to 27 KTS

Jun-18@
23:00 UTC

Jun-18 @ 23:00 UTC

Jun-19@
03:00 UTC

Jun-19 @ 03:00 UTC

PROB30 1823/1903 1200 BR

Probable - 30% Likelihood

Probable - 30% Likelihood during this time.

Conditions
Mist